Details From EPWR - STRACHOWICE
To EPLB - Lublin
Flight Number -
Tags generated
Created
Modified
Stats Distance 221 nm / 409 km
Max Altitude 25,300 ft / 7,711 m
Waypoints 4
Social Downloads 0
Likes 0
Share VATSIM

Download

Looking for another format? Having issues loading an existing format? Contact us
Advertisement - Login to hide

Notes

Basic altitude profile: - Ascent Rate: 2500ft/min - Ascent Speed: 250kts - Cruise Altitude: 35000ft - Cruise Speed: 420kts - Descent Rate: 1500ft/min - Descent Speed: 250kts Options: - Use NATs: yes - Use PACOTS: yes - Use low airways: yes - Use high airways: yes

Route

EPWR BESAL NAVUR EPLB

ID Type Via Altitude Latitude Longitude Leg Dist Tot Dist Heading (true) Name
O EPWR APT - 0 ft / 0 m 51.10388˚ 16.88189˚ - 0 nm - STRACHOWICE
BESAL FIX - 25,300 ft / 7,711 m 50.99333˚ 19.58528˚ 102 nm 102 nm 93° / 95° -
NAVUR FIX - 21,700 ft / 6,614 m 51.01306˚ 19.91111˚ 12 nm 114 nm 84° / 85° -
O EPLB APT - 0 ft / 0 m 51.23634˚ 22.70251˚ 106 nm 220 nm 82° / 84° Lublin

Altitude Profile

Advertisement - Login to hide

Weather


0- 5 10 15 20 25 30 35+ Temperature / ° C

Clouds and Precipitation
Forecast for 2017-12-14 18:00 UTC. Updated 26 minutes ago

Ground ~20,000 ft ~40,000 ft Winds

EPWR

Details ICAO EPWR (WRO)
Name STRACHOWICE
Region Poland
Timezone Europe/Warsaw (UTC+1.0)
Stats Elevation 404 ft / 123 m (AMSL)
Location 51.103882° 16.881892°
Runways 1
Magnetic Variation 4.613° E

METAR

EPWR 141530Z 25011KT 9999 FEW041 04/M01 Q0997

Decode

TAF

TAF EPWR 141130Z 1412/1512 20010KT 9999 BKN020 TEMPO 1412/1418 22015G25KT SHRA BKN014CB PROB30 1412/1415 24020G35KT 3000 SHRA

Decode

Departure Runways

ID Width Length Bearing (true) Bearing (mag) Surface Threshold Offset Overrun Length
12 197 ft / 60 m 8,192 ft / 2,497 m 115.99° 111.38° Concrete 0 ft / 0 m 0 ft / 0 m
30 197 ft / 60 m 8,192 ft / 2,497 m 296.01° 291.40° Concrete 0 ft / 0 m 0 ft / 0 m

EPLB

Details ICAO EPLB (LUZ)
Name Lublin
Region Poland
Timezone Europe/Warsaw (UTC+1.0)
Stats Elevation 633 ft / 193 m (AMSL)
Location 51.236345° 22.702508°
Runways 2
Magnetic Variation 6.072° E

METAR

EPLB 141530Z 21014KT 9999 FEW045 03/M00 Q0997

Decode

TAF

Not found

Destination Runways

ID Width Length Bearing (true) Bearing (mag) Surface Threshold Offset Overrun Length
06 222 ft / 68 m 3,445 ft / 1,050 m 62.25° 56.18° Grass 0 ft / 0 m 0 ft / 0 m
07 148 ft / 45 m 8,277 ft / 2,523 m 77.06° 70.99° Asphalt 72 ft / 22 m 0 ft / 0 m
24 222 ft / 68 m 3,445 ft / 1,050 m 242.26° 236.19° Grass 0 ft / 0 m 0 ft / 0 m
25 148 ft / 45 m 8,277 ft / 2,523 m 257.09° 251.02° Asphalt 66 ft / 20 m 0 ft / 0 m

Popular Alternatives